Hauptseite
METAR-TAF:

METAR-TAF

Flughäfen :

Aéroport Nice Côte d’Azur

Nizza, Frankreich

Breite: 43-39N, Länge: 007-12E, Höhe: 4 m

Beobachtung

Neuester Wetterbericht von vor 27 Minuten, um 02:00 UTC
Wind 10 kt aus Nord/Nordwest
Temperatur 8°C
Luftfeuchtigkeit 53%
Luftdruck 1018 hPa
Sichtweite 10 km oder mehr
Leicht bewölkt in der Höhe von 8300 ft

METAR: LFMN 180200Z 33010KT 9999 FEW083 08/M01 Q1018 NOSIG

Zeit: 03:27 (02:27 UTC)

Prognose

Neuester Wetterbericht von vor 6 Stunden und 27 Minuten, um 20:00 UTC
Gültige Prognose vom 17 um 21 UTC bis 19 um 03 UTC
Wind 18 kt aus Nord/Nordost
Sichtweite 10 km oder mehr
Aufgelockert bewölkt in der Höhe von 9000 ft
Zeitweise
vom 18 um 11 UTC bis 18 um 16 UTC
Wind 20 kt aus Ost, Böen bis zu 30 kt
Übergehend zu
vom 18 um 17 UTC bis 18 um 19 UTC
Wind 10 kt aus Nord/Nordwest

TAF: LFMN 172000Z 1721/1903 02018KT 9999 SCT090 TEMPO 1811/1816 08020G30KT BECMG 1817/1819 33010KT

Wetterbeobachtungen und Prognosen von mehr als 4000 Flughäfen (METAR und TAF Bericht).

Die verfügbaren Stationen werden durch gelbe und rote Markierungen auf der Karte dargestellt.

Führen Sie die Maus auf sie, um den Namen der Station zu sehen.

Darauf klicken, um die Beobachtung von Wetterbeobachtungen und Prognosen zu sehen.

Um die Karte zu ändern : klicken Sie auf den grünen Tasten mit einem schwarzen Kreuz Zum Vergrößern, auf den grünen Button mit einem Gedankenstrich zu verkleinern, oder auf die grünen Pfeile für benachbarte Karten.


METAR-TAF: